Time;durP1;ratioP1;P1;durP2;ratioP2;P2;SDS_P1;SDS_P2;PMS_P1;PMS_P2;Temp;Humidity;BMP_temperature;BMP_pressure;BME280_temperature;BME280_humidity;BME280_pressure;Samples;Min_cycle;Max_cycle;Signal;HPM_P1;HPM_P2
2022/08/16 00:00:51;;;;;;;3.07;2.77;;;20.40;99.90;;;;;;7378696;19;20349;-77
2022/08/16 00:03:17;;;;;;;3.10;2.90;;;20.40;99.90;;;;;;7377371;19;20413;-77
2022/08/16 00:05:43;;;;;;;3.55;3.25;;;20.40;99.90;;;;;;7375496;19;20320;-78
2022/08/16 00:08:08;;;;;;;3.10;2.80;;;20.30;99.90;;;;;;7377860;19;20378;-77
2022/08/16 00:10:34;;;;;;;3.20;2.90;;;20.30;99.90;;;;;;7377699;19;20325;-77
2022/08/16 00:13:00;;;;;;;3.40;3.10;;;20.20;99.90;;;;;;7377718;19;20356;-77
2022/08/16 00:15:32;;;;;;;4.05;3.72;;;20.20;99.90;;;;;;7374944;19;20321;-77
2022/08/16 00:17:58;;;;;;;4.00;3.30;;;20.10;99.90;;;;;;7376385;19;20345;-77
2022/08/16 00:20:24;;;;;;;4.60;3.20;;;20.00;99.90;;;;;;7378025;19;20343;-78
2022/08/16 00:22:49;;;;;;;3.33;3.03;;;20.00;99.90;;;;;;7377444;19;20485;-77
2022/08/16 00:25:16;;;;;;;3.42;3.13;;;20.00;99.90;;;;;;7372170;19;20340;-77
2022/08/16 00:27:41;;;;;;;3.80;3.50;;;19.90;99.90;;;;;;7376928;19;20356;-77
2022/08/16 00:30:08;;;;;;;3.13;2.83;;;19.90;99.90;;;;;;7376830;19;20810;-77
2022/08/16 00:32:34;;;;;;;3.08;2.88;;;19.90;99.90;;;;;;7376404;19;20344;-77
2022/08/16 00:35:00;;;;;;;3.47;2.90;;;19.90;99.90;;;;;;7374638;19;20351;-77
2022/08/16 00:37:25;;;;;;;3.05;2.75;;;19.80;99.90;;;;;;7375498;19;20338;-77
2022/08/16 00:39:52;;;;;;;3.30;3.00;;;19.80;99.90;;;;;;7378936;19;20355;-77
2022/08/16 00:42:18;;;;;;;3.10;2.90;;;19.80;99.90;;;;;;7376961;19;20364;-77
2022/08/16 00:44:48;;;;;;;3.40;3.10;;;19.80;99.90;;;;;;7373004;19;20663;-77
2022/08/16 00:47:15;;;;;;;3.70;2.90;;;19.70;99.90;;;;;;7375360;19;20368;-77
2022/08/16 00:49:40;;;;;;;3.17;2.88;;;19.70;99.90;;;;;;7376084;19;20420;-77
2022/08/16 00:52:06;;;;;;;3.10;2.80;;;19.70;99.90;;;;;;7379210;19;20437;-77
2022/08/16 00:54:31;;;;;;;3.30;3.00;;;19.70;99.90;;;;;;7381915;19;20690;-77
2022/08/16 00:56:58;;;;;;;3.30;3.00;;;19.70;99.90;;;;;;7382715;19;20352;-77
2022/08/16 00:59:25;;;;;;;3.30;3.00;;;19.60;99.90;;;;;;7384850;19;20351;-78
2022/08/16 01:01:50;;;;;;;3.53;3.22;;;19.60;99.90;;;;;;7382015;19;20340;-77
2022/08/16 01:04:19;;;;;;;3.03;2.83;;;19.60;99.90;;;;;;7380571;19;20327;-77
2022/08/16 01:06:44;;;;;;;3.05;2.85;;;19.60;99.90;;;;;;7381758;19;20339;-77
2022/08/16 01:09:10;;;;;;;3.40;3.10;;;19.60;99.90;;;;;;7376637;19;20403;-77
2022/08/16 01:11:36;;;;;;;2.80;2.60;;;19.60;99.90;;;;;;7382907;19;20691;-76
2022/08/16 01:14:12;;;;;;;3.38;3.08;;;19.50;99.90;;;;;;7381364;19;20344;-77
2022/08/16 01:16:37;;;;;;;3.00;2.80;;;19.50;99.90;;;;;;7383165;19;20351;-77
2022/08/16 01:19:20;;;;;;;3.20;3.00;;;19.50;99.90;;;;;;7383852;19;21241;-77
2022/08/16 01:21:48;;;;;;;3.53;3.22;;;19.50;99.90;;;;;;7383093;19;20446;-77
2022/08/16 01:24:31;;;;;;;4.82;3.30;;;19.50;99.90;;;;;;7381324;19;20408;-77
2022/08/16 01:27:02;;;;;;;3.20;2.97;;;19.50;99.90;;;;;;7278263;19;2004587;-77
2022/08/16 01:29:39;;;;;;;3.53;3.22;;;19.50;99.90;;;;;;7381955;19;20428;-77
2022/08/16 01:32:04;;;;;;;5.00;3.83;;;19.50;99.90;;;;;;7382658;19;20336;-77
2022/08/16 01:34:30;;;;;;;4.05;3.67;;;19.50;99.90;;;;;;7380837;19;20313;-77
2022/08/16 01:37:05;;;;;;;3.90;3.60;;;19.50;99.90;;;;;;7381755;19;20350;-77
2022/08/16 01:39:31;;;;;;;3.20;3.00;;;19.50;99.90;;;;;;7382808;19;20316;-77
2022/08/16 01:41:57;;;;;;;3.75;3.45;;;19.40;99.90;;;;;;7380482;19;20336;-77
2022/08/16 01:44:23;;;;;;;4.13;3.63;;;19.50;99.90;;;;;;7380609;19;20321;-77
2022/08/16 01:46:48;;;;;;;4.07;3.67;;;19.50;99.90;;;;;;7380779;19;20923;-77
2022/08/16 01:49:20;;;;;;;4.18;3.47;;;19.50;99.90;;;;;;7381603;19;20316;-77
2022/08/16 01:51:49;;;;;;;3.25;2.95;;;19.40;99.90;;;;;;7382457;19;20388;-77
2022/08/16 01:54:20;;;;;;;4.18;3.80;;;19.40;99.90;;;;;;7380513;19;20317;-77
2022/08/16 01:56:50;;;;;;;3.77;3.37;;;19.30;99.90;;;;;;7381266;19;20353;-77
2022/08/16 01:59:17;;;;;;;3.80;3.50;;;19.30;99.90;;;;;;7381467;19;20340;-77
2022/08/16 02:01:45;;;;;;;4.35;3.95;;;19.30;99.90;;;;;;7380985;19;20328;-77
2022/08/16 02:04:10;;;;;;;3.40;3.10;;;19.30;99.90;;;;;;7374975;19;20344;-77
2022/08/16 02:06:37;;;;;;;3.73;3.43;;;19.30;99.90;;;;;;7381274;19;20324;-76
2022/08/16 02:09:03;;;;;;;3.67;3.38;;;19.30;99.90;;;;;;7379348;19;20362;-78
2022/08/16 02:11:28;;;;;;;4.00;3.60;;;19.30;99.90;;;;;;7380693;19;20490;-77
2022/08/16 02:13:54;;;;;;;4.20;3.80;;;19.30;99.90;;;;;;7379124;19;20396;-77
2022/08/16 02:16:20;;;;;;;4.17;3.77;;;19.20;99.90;;;;;;7380781;19;20325;-77
2022/08/16 02:18:46;;;;;;;3.97;3.67;;;19.10;99.90;;;;;;7381693;19;20349;-77
2022/08/16 02:21:12;;;;;;;3.65;3.35;;;19.10;99.90;;;;;;7379878;19;20336;-77
2022/08/16 02:23:37;;;;;;;3.87;3.57;;;19.00;99.90;;;;;;7378103;19;21329;-76
2022/08/16 02:26:03;;;;;;;3.00;2.80;;;19.00;99.90;;;;;;7379071;19;20356;-77
2022/08/16 02:28:29;;;;;;;3.40;3.10;;;19.10;99.90;;;;;;7379256;19;20317;-77
2022/08/16 02:30:57;;;;;;;5.03;4.40;;;19.10;99.90;;;;;;7382168;19;20360;-77
2022/08/16 02:33:23;;;;;;;3.60;3.30;;;19.10;99.90;;;;;;7381287;19;20323;-77
2022/08/16 02:35:49;;;;;;;3.40;3.10;;;19.00;99.90;;;;;;7377234;19;20333;-78
2022/08/16 02:38:15;;;;;;;4.00;3.70;;;19.00;99.90;;;;;;7379613;19;20356;-77
2022/08/16 02:40:40;;;;;;;3.90;3.60;;;19.00;99.90;;;;;;7379200;19;20340;-76
2022/08/16 02:43:06;;;;;;;3.67;3.38;;;18.90;99.90;;;;;;7380666;19;20375;-77
2022/08/16 02:45:32;;;;;;;3.60;3.30;;;18.90;99.90;;;;;;7374095;19;20894;-77
2022/08/16 02:47:58;;;;;;;5.85;5.25;;;18.90;99.90;;;;;;7378464;19;20340;-77
2022/08/16 02:50:24;;;;;;;4.43;4.03;;;18.80;99.90;;;;;;7381750;19;20380;-76
2022/08/16 02:52:49;;;;;;;4.40;3.88;;;18.70;99.90;;;;;;7380880;19;20328;-77
2022/08/16 02:55:15;;;;;;;4.38;4.07;;;18.60;99.90;;;;;;7375408;19;21367;-76
2022/08/16 02:57:41;;;;;;;4.30;3.90;;;18.60;99.90;;;;;;7379936;19;20343;-78
2022/08/16 03:00:08;;;;;;;3.60;3.30;;;18.50;99.90;;;;;;7378361;19;20349;-77
2022/08/16 03:02:39;;;;;;;4.35;3.95;;;18.50;99.90;;;;;;7379037;19;20328;-76
2022/08/16 03:05:08;;;;;;;3.73;3.43;;;18.50;99.90;;;;;;7376431;19;20451;-77
2022/08/16 03:07:34;;;;;;;3.58;3.28;;;18.50;99.90;;;;;;7377691;19;20357;-77
2022/08/16 03:10:00;;;;;;;4.47;4.07;;;18.50;99.90;;;;;;7378412;19;20463;-77
2022/08/16 03:12:25;;;;;;;4.17;3.87;;;18.50;99.90;;;;;;7379020;19;20431;-77
2022/08/16 03:14:51;;;;;;;3.90;3.50;;;18.50;99.90;;;;;;7375907;19;20332;-77
2022/08/16 03:17:20;;;;;;;4.10;3.70;;;18.50;99.90;;;;;;7377871;19;20656;-77
2022/08/16 03:19:49;;;;;;;4.88;4.43;;;18.50;99.90;;;;;;7379217;19;20345;-76
2022/08/16 03:22:17;;;;;;;4.07;3.78;;;18.40;99.90;;;;;;7377903;19;21219;-77
2022/08/16 03:24:42;;;;;;;3.92;3.60;;;18.30;99.90;;;;;;7377393;19;20361;-77
2022/08/16 03:27:09;;;;;;;4.65;4.25;;;18.30;99.90;;;;;;7375067;19;21252;-76
2022/08/16 03:29:34;;;;;;;4.23;3.83;;;18.30;99.90;;;;;;7378077;19;20332;-77
2022/08/16 03:32:03;;;;;;;4.40;4.03;;;18.30;99.90;;;;;;7378332;19;20341;-77
2022/08/16 03:34:29;;;;;;;4.80;4.40;;;18.30;99.90;;;;;;7375256;19;21092;-77
2022/08/16 03:36:56;;;;;;;4.50;4.10;;;18.30;99.90;;;;;;7376961;19;20337;-77
2022/08/16 03:39:21;;;;;;;4.05;3.47;;;18.30;99.90;;;;;;7378122;19;20324;-77
2022/08/16 03:41:48;;;;;;;4.53;4.13;;;18.30;99.90;;;;;;7378926;19;20340;-77
2022/08/16 03:44:13;;;;;;;3.80;3.50;;;18.30;99.90;;;;;;7377225;19;20345;-77
2022/08/16 03:46:39;;;;;;;5.75;4.32;;;18.30;99.90;;;;;;7376866;19;20924;-77
2022/08/16 03:49:07;;;;;;;4.30;3.90;;;18.40;99.90;;;;;;7378784;19;20344;-77
2022/08/16 03:51:33;;;;;;;4.53;3.80;;;18.40;99.90;;;;;;7366284;19;20392;-78
2022/08/16 03:54:02;;;;;;;3.90;3.60;;;18.40;99.90;;;;;;7375543;19;20356;-77
2022/08/16 03:56:30;;;;;;;4.20;3.90;;;18.40;99.90;;;;;;7373097;19;20348;-78
2022/08/16 03:58:57;;;;;;;3.97;3.67;;;18.40;99.90;;;;;;7375901;19;20738;-77
2022/08/16 04:01:27;;;;;;;4.57;4.05;;;18.30;99.90;;;;;;7375076;19;20706;-76
2022/08/16 04:03:53;;;;;;;4.90;4.50;;;18.30;99.90;;;;;;7377666;19;20332;-77
2022/08/16 04:06:19;;;;;;;3.90;3.60;;;18.30;99.90;;;;;;7374334;19;20325;-77
2022/08/16 04:08:46;;;;;;;4.90;4.50;;;18.30;99.90;;;;;;7376776;19;20397;-77
2022/08/16 04:11:12;;;;;;;4.57;4.18;;;18.30;99.90;;;;;;7375924;19;20446;-77
2022/08/16 04:13:38;;;;;;;5.10;4.60;;;18.30;99.90;;;;;;7378068;19;20715;-77
2022/08/16 04:16:05;;;;;;;5.00;4.57;;;18.30;99.90;;;;;;7373229;19;20387;-77
2022/08/16 04:18:31;;;;;;;4.55;4.15;;;18.30;99.90;;;;;;7376217;19;20785;-77
2022/08/16 04:20:57;;;;;;;4.50;4.10;;;18.20;99.90;;;;;;7377515;19;20356;-78
2022/08/16 04:23:25;;;;;;;4.50;4.10;;;18.30;99.90;;;;;;7375959;19;20332;-78
2022/08/16 04:25:52;;;;;;;4.70;4.23;;;18.30;99.90;;;;;;7373169;19;20341;-78
2022/08/16 04:28:18;;;;;;;5.30;4.03;;;18.30;99.90;;;;;;7383060;19;20877;-77
2022/08/16 04:30:44;;;;;;;4.20;3.90;;;18.30;99.90;;;;;;7383318;19;20331;-78
2022/08/16 04:33:10;;;;;;;5.47;4.97;;;18.40;99.90;;;;;;7382964;19;20385;-77
2022/08/16 04:35:38;;;;;;;4.37;3.97;;;18.40;99.90;;;;;;7381007;19;20313;-77
2022/08/16 04:38:05;;;;;;;4.10;3.80;;;18.40;99.90;;;;;;7382633;19;20355;-78
2022/08/16 04:40:38;;;;;;;4.50;4.10;;;18.40;99.90;;;;;;7384515;19;20686;-78
2022/08/16 04:43:04;;;;;;;5.00;4.50;;;18.40;99.90;;;;;;7383317;19;20348;-78
2022/08/16 04:45:30;;;;;;;4.90;4.43;;;18.40;99.90;;;;;;7380015;19;20352;-77
2022/08/16 04:47:56;;;;;;;4.90;4.40;;;18.40;99.90;;;;;;7380185;19;20337;-77
2022/08/16 04:50:26;;;;;;;4.07;3.73;;;18.50;99.90;;;;;;7380691;19;20301;-77
2022/08/16 04:53:08;;;;;;;4.50;4.10;;;18.50;99.90;;;;;;7278455;19;2004553;-78
2022/08/16 04:55:37;;;;;;;4.65;4.25;;;18.60;99.90;;;;;;7375785;19;20406;-77
2022/08/16 04:58:03;;;;;;;4.55;4.15;;;18.60;99.90;;;;;;7378661;19;20424;-78
2022/08/16 05:00:32;;;;;;;4.53;4.13;;;18.60;99.90;;;;;;7379154;19;20307;-77
2022/08/16 05:03:07;;;;;;;5.25;4.55;;;18.70;99.90;;;;;;7375789;19;20340;-77
2022/08/16 05:05:38;;;;;;;4.07;3.67;;;18.70;99.90;;;;;;7378579;19;20444;-78
2022/08/16 05:08:04;;;;;;;5.00;4.50;;;18.70;99.90;;;;;;7380705;19;20375;-78
2022/08/16 05:10:30;;;;;;;4.75;4.35;;;18.80;99.90;;;;;;7379297;19;20976;-77
2022/08/16 05:12:59;;;;;;;6.07;5.07;;;18.90;99.90;;;;;;7380295;19;20344;-77
2022/08/16 05:15:25;;;;;;;3.93;3.63;;;18.90;99.90;;;;;;7376061;19;20320;-77
2022/08/16 05:17:51;;;;;;;5.20;4.70;;;19.00;99.90;;;;;;7380208;19;20335;-77
2022/08/16 05:20:17;;;;;;;7.32;5.60;;;19.00;99.90;;;;;;7380211;19;20439;-77
2022/08/16 05:22:43;;;;;;;6.45;4.68;;;19.10;99.90;;;;;;7382103;19;20443;-77
2022/08/16 05:25:12;;;;;;;4.78;4.38;;;19.10;99.90;;;;;;7378352;19;20492;-78
2022/08/16 05:27:43;;;;;;;5.88;5.32;;;19.20;99.90;;;;;;7380997;19;20332;-78
2022/08/16 05:30:12;;;;;;;7.75;4.95;;;19.30;99.90;;;;;;7378919;19;20856;-77
2022/08/16 05:32:40;;;;;;;5.37;4.93;;;19.30;99.90;;;;;;7380936;19;20332;-78
2022/08/16 05:35:08;;;;;;;5.85;5.35;;;19.40;99.90;;;;;;7378201;19;22011;-78
2022/08/16 05:37:35;;;;;;;5.70;5.03;;;19.50;99.90;;;;;;7380105;19;20329;-78
2022/08/16 05:40:01;;;;;;;5.60;5.10;;;19.50;99.90;;;;;;7380725;19;20373;-78
2022/08/16 05:42:26;;;;;;;5.10;4.68;;;19.60;99.90;;;;;;7380703;19;20715;-78
2022/08/16 05:44:52;;;;;;;6.75;5.75;;;19.60;99.90;;;;;;7378174;19;20342;-77
2022/08/16 05:47:18;;;;;;;7.45;5.70;;;19.70;99.90;;;;;;7378116;19;20318;-78
2022/08/16 05:49:45;;;;;;;6.00;5.25;;;19.80;99.90;;;;;;7381014;19;20967;-78
2022/08/16 05:52:11;;;;;;;4.88;4.40;;;19.90;99.90;;;;;;7378333;19;20335;-78
2022/08/16 05:54:37;;;;;;;6.30;4.30;;;20.00;99.90;;;;;;7376422;19;20343;-77
2022/08/16 05:57:04;;;;;;;4.22;3.90;;;20.00;99.90;;;;;;7373988;19;20340;-77
2022/08/16 05:59:30;;;;;;;6.32;5.28;;;20.10;99.90;;;;;;7372844;19;20336;-78
2022/08/16 06:01:56;;;;;;;5.70;4.95;;;20.20;99.90;;;;;;7376206;19;20340;-78
2022/08/16 06:04:28;;;;;;;5.97;4.95;;;20.30;99.90;;;;;;7272542;19;2004338;-77
2022/08/16 06:06:54;;;;;;;5.85;4.70;;;20.30;99.90;;;;;;7373225;19;20344;-77
2022/08/16 06:09:19;;;;;;;5.03;4.53;;;20.40;99.90;;;;;;7376733;19;20316;-77
2022/08/16 06:11:45;;;;;;;5.28;4.78;;;20.50;99.90;;;;;;7374630;19;20332;-77
2022/08/16 06:14:11;;;;;;;4.60;4.20;;;20.60;99.90;;;;;;7372651;19;20355;-78
2022/08/16 06:16:40;;;;;;;4.03;3.72;;;20.70;99.90;;;;;;7374147;19;20341;-76
2022/08/16 06:19:06;;;;;;;4.97;4.47;;;20.70;99.90;;;;;;7378202;19;20360;-76
2022/08/16 06:21:34;;;;;;;4.97;4.47;;;20.80;99.90;;;;;;7378701;19;20328;-76
2022/08/16 06:24:01;;;;;;;4.80;4.40;;;20.90;99.90;;;;;;7375123;19;20325;-75
2022/08/16 06:26:30;;;;;;;6.22;4.88;;;21.00;99.90;;;;;;7377713;19;20356;-76
2022/08/16 06:28:56;;;;;;;4.97;4.43;;;21.10;99.90;;;;;;7379250;19;20313;-76
2022/08/16 06:31:29;;;;;;;4.88;4.45;;;21.20;99.90;;;;;;7274676;19;2004733;-76
2022/08/16 06:33:56;;;;;;;5.10;4.60;;;21.30;99.90;;;;;;7377175;19;20333;-77
2022/08/16 06:36:22;;;;;;;5.20;4.63;;;21.30;99.90;;;;;;7376349;19;20329;-76
2022/08/16 06:39:03;;;;;;;5.43;4.88;;;21.40;99.90;;;;;;7272684;19;2004158;-76
2022/08/16 06:41:43;;;;;;;5.18;4.70;;;21.50;99.90;;;;;;7378381;19;20334;-77
2022/08/16 06:44:18;;;;;;;4.30;3.90;;;21.60;99.90;;;;;;7373732;19;20304;-76
2022/08/16 06:46:44;;;;;;;4.97;4.43;;;21.60;99.90;;;;;;7375284;19;20351;-76
2022/08/16 06:49:15;;;;;;;5.63;4.85;;;21.80;99.90;;;;;;7377278;19;20341;-76
2022/08/16 06:51:40;;;;;;;6.53;4.60;;;21.90;99.90;;;;;;7378415;19;20848;-77
2022/08/16 06:54:07;;;;;;;5.20;4.60;;;22.00;99.90;;;;;;7374787;19;21252;-76
2022/08/16 06:56:33;;;;;;;5.22;4.72;;;22.10;99.90;;;;;;7375414;19;20893;-77
2022/08/16 06:59:06;;;;;;;5.30;4.50;;;22.20;99.90;;;;;;7378451;19;20344;-77
2022/08/16 07:01:35;;;;;;;6.50;4.43;;;22.30;99.90;;;;;;7376069;19;20326;-77
2022/08/16 07:04:01;;;;;;;5.67;4.90;;;22.40;99.90;;;;;;7375419;19;20320;-77
2022/08/16 07:06:32;;;;;;;4.95;4.55;;;22.50;99.90;;;;;;7377918;19;20339;-75
2022/08/16 07:09:00;;;;;;;5.07;4.43;;;22.70;99.90;;;;;;7378907;19;21126;-75
2022/08/16 07:11:29;;;;;;;5.18;4.68;;;22.80;99.90;;;;;;7379527;19;20910;-75
2022/08/16 07:13:55;;;;;;;5.33;4.57;;;23.00;99.90;;;;;;7376306;19;20337;-76
2022/08/16 07:16:23;;;;;;;5.57;5.07;;;23.10;99.90;;;;;;7374625;19;20336;-75
2022/08/16 07:18:49;;;;;;;5.57;5.07;;;23.10;99.90;;;;;;7377501;19;20300;-75
2022/08/16 07:21:15;;;;;;;5.40;4.70;;;23.20;99.90;;;;;;7379334;19;20350;-75
2022/08/16 07:23:40;;;;;;;4.70;4.25;;;23.20;99.90;;;;;;7377168;19;20325;-76
2022/08/16 07:26:10;;;;;;;4.75;4.35;;;23.40;99.90;;;;;;7373643;19;20320;-75
2022/08/16 07:28:36;;;;;;;5.65;5.13;;;23.60;99.90;;;;;;7376708;19;20346;-76
2022/08/16 07:31:03;;;;;;;5.00;4.60;;;23.60;99.90;;;;;;7377106;19;21442;-75
2022/08/16 07:33:34;;;;;;;4.65;4.25;;;23.70;99.90;;;;;;7377942;19;20320;-75
2022/08/16 07:35:59;;;;;;;4.95;4.55;;;23.90;99.90;;;;;;7378149;19;20797;-76
2022/08/16 07:38:26;;;;;;;4.13;3.72;;;24.20;99.90;;;;;;7376313;19;20315;-75
2022/08/16 07:40:54;;;;;;;4.72;4.10;;;24.40;99.90;;;;;;7377452;19;20327;-75
2022/08/16 07:43:21;;;;;;;7.55;4.82;;;24.60;99.90;;;;;;7376827;19;20398;-75
2022/08/16 07:45:47;;;;;;;5.63;4.93;;;24.80;99.90;;;;;;7376058;19;20387;-75
2022/08/16 07:48:13;;;;;;;5.60;5.10;;;24.80;99.90;;;;;;7377783;19;20324;-75
2022/08/16 07:50:44;;;;;;;6.20;4.78;;;24.90;99.90;;;;;;7376391;19;21251;-75
2022/08/16 07:53:09;;;;;;;5.17;4.67;;;25.10;99.90;;;;;;7376967;19;20407;-75
2022/08/16 07:55:35;;;;;;;6.00;5.20;;;25.30;99.90;;;;;;7372916;19;20849;-76
2022/08/16 07:58:01;;;;;;;5.35;4.85;;;25.20;99.90;;;;;;7376316;19;20324;-75
2022/08/16 08:00:28;;;;;;;5.23;4.40;;;25.20;99.90;;;;;;7375914;19;20345;-75
2022/08/16 08:02:57;;;;;;;6.53;4.85;;;25.50;99.90;;;;;;7375274;19;20324;-75
2022/08/16 08:05:23;;;;;;;8.20;4.80;;;25.60;99.90;;;;;;7374932;19;20309;-76
2022/08/16 08:07:52;;;;;;;5.15;4.65;;;25.70;99.90;;;;;;7376531;19;20305;-76
2022/08/16 08:10:18;;;;;;;5.87;5.00;;;25.70;99.90;;;;;;7376514;19;20344;-76
2022/08/16 08:12:45;;;;;;;4.87;4.47;;;25.90;99.90;;;;;;7378232;19;21092;-75
2022/08/16 08:15:12;;;;;;;7.40;5.47;;;26.10;99.90;;;;;;7372531;19;20451;-75
2022/08/16 08:17:39;;;;;;;5.53;4.97;;;26.20;99.90;;;;;;7377265;19;20867;-75
2022/08/16 08:20:07;;;;;;;5.25;4.75;;;26.30;99.90;;;;;;7378309;19;20675;-76
2022/08/16 08:22:33;;;;;;;4.53;4.10;;;26.60;99.90;;;;;;7376384;19;20873;-76
2022/08/16 08:25:02;;;;;;;5.95;4.75;;;26.90;99.90;;;;;;7375673;19;21084;-76
2022/08/16 08:27:28;;;;;;;5.50;5.00;;;27.00;99.90;;;;;;7376187;19;20348;-75
2022/08/16 08:29:55;;;;;;;6.60;5.27;;;27.10;99.90;;;;;;7378391;19;20400;-76
2022/08/16 08:32:21;;;;;;;5.65;4.75;;;27.20;99.90;;;;;;7376140;19;20297;-75
2022/08/16 08:34:47;;;;;;;5.32;4.82;;;27.50;99.90;;;;;;7375126;19;20368;-76
2022/08/16 08:37:13;;;;;;;5.57;5.00;;;27.60;99.90;;;;;;7375797;19;20326;-76
2022/08/16 08:39:40;;;;;;;5.80;5.30;;;27.70;99.90;;;;;;7375910;19;20932;-76
2022/08/16 08:42:07;;;;;;;6.65;4.72;;;27.80;99.90;;;;;;7375608;19;20968;-76
2022/08/16 08:44:34;;;;;;;6.35;5.75;;;27.80;99.90;;;;;;7373606;19;20317;-76
2022/08/16 08:47:05;;;;;;;5.72;5.22;;;27.80;99.90;;;;;;7374701;19;20841;-75
2022/08/16 08:49:32;;;;;;;4.97;4.55;;;27.70;99.90;;;;;;7376556;19;21248;-75
2022/08/16 08:51:57;;;;;;;6.13;4.73;;;27.80;99.90;;;;;;7376469;19;20324;-76
2022/08/16 08:54:24;;;;;;;6.57;5.60;;;27.80;99.90;;;;;;7375540;19;20340;-75
2022/08/16 08:56:53;;;;;;;8.13;5.10;;;28.10;99.90;;;;;;7373583;19;21190;-75
2022/08/16 08:59:27;;;;;;;5.68;5.07;;;28.30;99.90;;;;;;7377700;19;20304;-76
2022/08/16 09:01:53;;;;;;;4.97;4.57;;;28.30;99.90;;;;;;7374642;19;20329;-76
2022/08/16 09:04:19;;;;;;;5.78;5.00;;;28.20;99.90;;;;;;7373514;19;21267;-74
2022/08/16 09:06:47;;;;;;;5.25;4.75;;;28.30;99.90;;;;;;7374653;19;20364;-75
2022/08/16 09:09:14;;;;;;;6.00;4.93;;;28.50;99.90;;;;;;7374174;19;20324;-75
2022/08/16 09:11:43;;;;;;;5.25;4.75;;;28.30;99.90;;;;;;7377010;19;20328;-76
2022/08/16 09:14:09;;;;;;;6.22;5.53;;;28.30;99.90;;;;;;7381590;19;20316;-76
2022/08/16 09:16:35;;;;;;;5.45;4.95;;;28.30;99.90;;;;;;7381039;19;20390;-75
2022/08/16 09:19:02;;;;;;;6.25;4.60;;;28.40;99.90;;;;;;7382426;19;20324;-75
2022/08/16 09:21:27;;;;;;;5.60;5.10;;;28.50;99.90;;;;;;7383545;19;20320;-75
2022/08/16 09:23:53;;;;;;;7.55;5.20;;;28.70;99.90;;;;;;7383155;19;20825;-76
2022/08/16 09:26:20;;;;;;;5.60;4.90;;;28.80;99.90;;;;;;7382654;19;20304;-78
2022/08/16 09:28:45;;;;;;;5.50;5.00;;;28.60;99.90;;;;;;7382251;19;20324;-76
2022/08/16 09:31:15;;;;;;;4.70;4.30;;;28.80;99.90;;;;;;7382785;19;20328;-76
2022/08/16 09:33:42;;;;;;;4.85;4.35;;;29.10;99.90;;;;;;7383393;19;20321;-77
2022/08/16 09:36:07;;;;;;;6.32;4.18;;;29.40;99.90;;;;;;7385294;19;20339;-77
2022/08/16 09:38:34;;;;;;;5.87;4.63;;;29.80;99.90;;;;;;7385257;19;20901;-75
2022/08/16 09:41:01;;;;;;;4.88;4.38;;;30.00;99.90;;;;;;7385264;19;20317;-76
2022/08/16 09:43:26;;;;;;;5.00;4.35;;;30.10;99.90;;;;;;7387350;19;20320;-76
2022/08/16 09:45:52;;;;;;;6.28;4.75;;;30.50;99.90;;;;;;7379928;19;20320;-77
2022/08/16 09:48:17;;;;;;;4.55;4.15;;;30.60;99.90;;;;;;7382901;19;20340;-76
2022/08/16 09:50:43;;;;;;;5.47;4.45;;;30.70;99.90;;;;;;7382436;19;20327;-76
2022/08/16 09:53:14;;;;;;;5.50;3.97;;;30.80;99.90;;;;;;7383486;19;20976;-77
2022/08/16 09:55:41;;;;;;;4.45;3.60;;;31.10;99.90;;;;;;7380488;19;20334;-75
2022/08/16 09:58:06;;;;;;;5.40;3.60;;;31.30;99.90;;;;;;7381250;19;20328;-75
2022/08/16 10:00:32;;;;;;;10.85;4.03;;;31.30;99.90;;;;;;7380152;19;20989;-77
2022/08/16 10:02:57;;;;;;;4.20;3.80;;;30.00;99.90;;;;;;7385475;19;20366;-76
2022/08/16 10:05:23;;;;;;;3.80;3.50;;;30.50;99.90;;;;;;7378839;19;20882;-75
2022/08/16 10:07:51;;;;;;;3.70;3.40;;;31.00;99.90;;;;;;7383394;19;20323;-75
2022/08/16 10:10:21;;;;;;;10.93;4.53;;;31.30;99.90;;;;;;7384540;19;20350;-76
2022/08/16 10:15:31;;;;;;;4.15;3.75;;;31.90;99.40;;;;;;7277179;19;2004339;-76
2022/08/16 10:17:56;;;;;;;4.13;3.60;;;31.60;99.50;;;;;;7382133;19;20311;-77
2022/08/16 10:20:24;;;;;;;5.32;3.20;;;31.80;98.10;;;;;;7385401;19;20313;-75
2022/08/16 10:22:50;;;;;;;3.60;3.30;;;32.00;96.00;;;;;;7386972;19;20320;-76
2022/08/16 10:25:16;;;;;;;3.67;3.38;;;32.40;96.70;;;;;;7382880;19;20438;-76
2022/08/16 10:27:42;;;;;;;4.10;3.47;;;32.70;95.30;;;;;;7385250;19;20380;-75
2022/08/16 10:30:08;;;;;;;3.97;3.30;;;32.90;94.80;;;;;;7386138;19;20315;-76
2022/08/16 10:32:34;;;;;;;3.77;3.40;;;33.30;94.60;;;;;;7386569;19;20313;-76
2022/08/16 10:35:00;;;;;;;3.47;3.23;;;33.50;94.00;;;;;;7383130;19;20897;-78
2022/08/16 10:37:26;;;;;;;4.28;3.40;;;33.60;93.40;;;;;;7387238;19;20317;-76
2022/08/16 10:39:51;;;;;;;3.70;3.30;;;33.70;92.00;;;;;;7385909;19;20345;-76
2022/08/16 10:42:17;;;;;;;4.13;3.73;;;33.40;90.00;;;;;;7380584;19;20348;-77
2022/08/16 10:44:43;;;;;;;4.53;3.57;;;32.70;89.70;;;;;;7379311;19;21121;-76
2022/08/16 10:47:09;;;;;;;4.37;3.57;;;32.60;89.60;;;;;;7378638;19;20337;-76
2022/08/16 10:49:35;;;;;;;3.72;3.42;;;33.30;90.50;;;;;;7381790;19;20399;-75
2022/08/16 10:52:01;;;;;;;3.83;3.47;;;33.20;91.40;;;;;;7381255;19;20343;-76
2022/08/16 10:54:27;;;;;;;3.63;3.22;;;33.80;91.20;;;;;;7379010;19;20329;-78
2022/08/16 10:56:54;;;;;;;6.07;3.20;;;34.10;89.40;;;;;;7380537;19;20309;-76
2022/08/16 10:59:19;;;;;;;3.92;3.50;;;34.20;86.40;;;;;;7382414;19;20309;-76
2022/08/16 11:01:45;;;;;;;3.63;3.15;;;34.40;88.90;;;;;;7381052;19;20393;-76
2022/08/16 11:04:11;;;;;;;3.57;3.27;;;34.80;87.40;;;;;;7377998;19;20411;-77
2022/08/16 11:06:37;;;;;;;4.90;3.10;;;34.90;83.70;;;;;;7379548;19;20340;-77
2022/08/16 11:09:02;;;;;;;3.23;2.93;;;35.00;84.90;;;;;;7380984;19;20359;-76
2022/08/16 11:11:28;;;;;;;4.57;3.00;;;35.10;83.20;;;;;;7379248;19;20311;-75
2022/08/16 11:13:53;;;;;;;3.70;3.30;;;35.00;85.90;;;;;;7378472;19;20695;-75
2022/08/16 11:16:19;;;;;;;3.60;3.30;;;35.30;82.80;;;;;;7378233;19;20309;-77
2022/08/16 11:18:45;;;;;;;3.50;3.20;;;35.50;82.70;;;;;;7378884;19;20384;-75
2022/08/16 11:21:14;;;;;;;3.45;3.15;;;34.80;73.80;;;;;;7379868;19;20758;-78
2022/08/16 11:23:39;;;;;;;3.15;2.88;;;35.30;80.20;;;;;;7377596;19;20424;-77
2022/08/16 11:26:05;;;;;;;4.57;3.17;;;35.50;79.70;;;;;;7381105;19;20349;-76
2022/08/16 11:28:31;;;;;;;3.40;3.10;;;35.40;73.70;;;;;;7378524;19;20701;-78
2022/08/16 11:30:58;;;;;;;4.20;3.15;;;35.40;77.40;;;;;;7379665;19;20329;-77
2022/08/16 11:33:23;;;;;;;4.32;3.05;;;35.40;76.00;;;;;;7380446;19;20414;-75
2022/08/16 11:35:50;;;;;;;3.67;3.20;;;35.60;76.00;;;;;;7377308;19;20317;-78
2022/08/16 11:38:17;;;;;;;4.85;3.17;;;35.70;74.40;;;;;;7379680;19;20900;-76
2022/08/16 11:40:51;;;;;;;5.57;3.22;;;34.60;71.50;;;;;;7378521;19;20304;-76
2022/08/16 11:43:20;;;;;;;3.17;2.90;;;34.30;74.00;;;;;;7379351;19;20333;-75
2022/08/16 11:45:47;;;;;;;3.10;2.90;;;34.20;72.90;;;;;;7377827;19;20305;-78
2022/08/16 11:48:12;;;;;;;5.40;2.90;;;34.40;74.20;;;;;;7377783;19;20993;-75
2022/08/16 11:50:39;;;;;;;3.33;3.03;;;34.60;73.20;;;;;;7378662;19;20341;-75
2022/08/16 11:53:04;;;;;;;2.95;2.67;;;34.60;74.60;;;;;;7379145;19;20308;-76
2022/08/16 11:55:30;;;;;;;2.97;2.77;;;34.80;71.20;;;;;;7375833;19;20384;-77
2022/08/16 11:57:56;;;;;;;3.17;2.97;;;34.70;71.10;;;;;;7378145;19;20845;-77
2022/08/16 12:00:21;;;;;;;3.20;2.95;;;34.60;73.70;;;;;;7378056;19;20333;-75
2022/08/16 12:02:47;;;;;;;2.92;2.70;;;34.80;72.60;;;;;;7377846;19;20655;-76
2022/08/16 12:05:13;;;;;;;3.15;2.88;;;34.90;72.20;;;;;;7375580;19;20447;-77
2022/08/16 12:07:39;;;;;;;3.25;2.97;;;35.00;72.60;;;;;;7377718;19;20312;-74
2022/08/16 12:10:13;;;;;;;3.53;3.23;;;35.00;71.20;;;;;;7379553;19;20854;-77
2022/08/16 12:12:40;;;;;;;5.53;2.90;;;35.10;66.80;;;;;;7376581;19;20333;-79
2022/08/16 12:15:06;;;;;;;3.03;2.83;;;35.30;71.90;;;;;;7377096;19;20370;-77
2022/08/16 12:17:32;;;;;;;6.90;3.67;;;35.60;74.00;;;;;;7376954;19;20321;-76
2022/08/16 12:19:58;;;;;;;5.50;3.30;;;36.20;73.50;;;;;;7378910;19;20339;-76
2022/08/16 12:22:23;;;;;;;5.40;3.92;;;36.30;66.40;;;;;;7378978;19;20316;-75
2022/08/16 12:24:49;;;;;;;2.90;2.70;;;36.20;68.60;;;;;;7374213;19;20339;-78
2022/08/16 12:27:15;;;;;;;5.53;3.43;;;36.70;68.10;;;;;;7376517;19;20356;-76
2022/08/16 12:29:40;;;;;;;7.65;3.70;;;37.20;69.60;;;;;;7376997;19;20683;-76
2022/08/16 12:32:06;;;;;;;5.40;3.67;;;37.50;62.90;;;;;;7376436;19;20332;-76
2022/08/16 12:34:32;;;;;;;5.27;3.13;;;34.70;60.50;;;;;;7374994;19;20841;-77
2022/08/16 12:36:58;;;;;;;3.10;2.77;;;35.30;66.20;;;;;;7376067;19;20352;-77
2022/08/16 12:39:23;;;;;;;5.57;2.92;;;35.90;64.40;;;;;;7376841;19;20314;-77
2022/08/16 12:41:51;;;;;;;3.28;2.97;;;36.10;62.10;;;;;;7378163;19;20320;-76
2022/08/16 12:44:17;;;;;;;5.53;2.80;;;36.70;60.60;;;;;;7374894;19;20341;-76
2022/08/16 12:48:56;;;;;;;2.53;2.33;;;37.10;60.20;;;;;;7376478;19;20336;-76